Weather at Central Nebraska Regional Airport

Public forecast

Using degrees Fahrenheit for public forecast. Weather courtesy of forecast.io.

Current aviation weather report (METAR) for Central Nebraska Regional Airport

Retrieved 2021/01/27 10:40 UTC (0 seconds ago):

KGRI 271040Z AUTO 01006KT 4SM -SN BR OVC031 M12/M14 A3027 RMK AO2 P0000 T11171139

Aviation forecast (TAF) for Central Nebraska Regional Airport

Retrieved 2021/01/27 06:48 UTC (3 hours ago):

TAF COR KGRI 270545Z 2706/2806 04008KT 3SM -SN BR OVC015 TEMPO 2707/2709 1 1/2SM -SN BR FM271100 VRB06KT P6SM BKN015 FM272000 16007KT P6SM SCT015